Time;durP1;ratioP1;P1;durP2;ratioP2;P2;SDS_P1;SDS_P2;PMS_P1;PMS_P2;Temp;Humidity;BMP_temperature;BMP_pressure;BME280_temperature;BME280_humidity;BME280_pressure;Samples;Min_cycle;Max_cycle;Signal;HPM_P1;HPM_P2
2023/04/02 00:00:57;;;;;;;3.40;3.10;;;;;;;;;;5017360;28;20192;-69
2023/04/02 00:03:24;;;;;;;4.30;3.90;;;;;;;;;;5004140;28;20682;-68
2023/04/02 00:05:54;;;;;;;5.82;3.95;;;;;;;;;;4997420;28;20200;-69
2023/04/02 00:08:23;;;;;;;4.45;4.05;;;;;;;;;;4997514;28;20553;-68
2023/04/02 00:10:52;;;;;;;3.63;3.33;;;;;;;;;;5015820;28;20589;-70
2023/04/02 00:13:23;;;;;;;3.95;3.40;;;;;;;;;;5016817;28;20672;-68
2023/04/02 00:15:51;;;;;;;2.55;2.38;;;;;;;;;;5016921;28;20672;-69
2023/04/02 00:18:19;;;;;;;3.05;2.75;;;;;;;;;;5016665;28;20207;-68
2023/04/02 00:20:48;;;;;;;3.30;3.00;;;;;;;;;;5016661;28;20289;-69
2023/04/02 00:23:15;;;;;;;3.88;3.58;;;;;;;;;;5016826;28;20229;-69
2023/04/02 00:25:44;;;;;;;3.25;2.97;;;;;;;;;;5016560;28;20202;-68
2023/04/02 00:28:14;;;;;;;3.28;2.92;;;;;;;;;;5016771;28;20203;-68
2023/04/02 00:30:47;;;;;;;2.75;2.55;;;;;;;;;;5016911;28;20187;-68
2023/04/02 00:33:16;;;;;;;3.10;2.90;;;;;;;;;;5016432;28;20184;-69
2023/04/02 00:35:43;;;;;;;2.90;2.70;;;;;;;;;;5015964;28;20228;-68
2023/04/02 00:38:17;;;;;;;3.80;3.45;;;;;;;;;;5016191;28;20203;-68
2023/04/02 00:40:45;;;;;;;3.60;3.20;;;;;;;;;;5016997;28;20191;-68
2023/04/02 00:43:15;;;;;;;3.45;3.15;;;;;;;;;;5016593;28;20206;-68
2023/04/02 00:45:49;;;;;;;3.67;3.38;;;;;;;;;;5016588;28;20191;-68
2023/04/02 00:48:21;;;;;;;3.33;3.03;;;;;;;;;;5016424;28;20208;-68
2023/04/02 00:50:48;;;;;;;3.30;2.95;;;;;;;;;;5016495;28;20195;-68
2023/04/02 00:53:24;;;;;;;3.17;2.97;;;;;;;;;;5016440;28;20226;-69
2023/04/02 00:55:52;;;;;;;3.55;3.25;;;;;;;;;;5016765;28;20278;-68
2023/04/02 00:58:23;;;;;;;5.35;3.83;;;;;;;;;;5016170;28;20218;-68
2023/04/02 01:00:51;;;;;;;5.78;3.33;;;;;;;;;;5016221;28;20187;-69
2023/04/02 01:03:34;;;;;;;3.75;3.45;;;;;;;;;;5004253;28;20217;-69
2023/04/02 01:06:04;;;;;;;3.60;3.28;;;;;;;;;;4997078;28;20607;-69
2023/04/02 01:08:36;;;;;;;5.80;3.88;;;;;;;;;;4996223;28;20227;-68
2023/04/02 01:11:08;;;;;;;4.40;3.55;;;;;;;;;;4994996;28;20202;-69
2023/04/02 01:13:40;;;;;;;5.75;3.90;;;;;;;;;;4996489;28;20187;-68
2023/04/02 01:16:11;;;;;;;3.08;2.88;;;;;;;;;;4996400;28;20550;-69
2023/04/02 01:18:45;;;;;;;3.70;3.40;;;;;;;;;;4996029;28;20278;-68
2023/04/02 01:21:20;;;;;;;4.65;4.25;;;;;;;;;;4996318;28;20193;-69
2023/04/02 01:23:53;;;;;;;4.72;4.32;;;;;;;;;;4996123;28;20192;-70
2023/04/02 01:26:27;;;;;;;5.72;4.30;;;;;;;;;;4996012;28;20639;-69
2023/04/02 01:29:00;;;;;;;4.88;4.47;;;;;;;;;;4996149;28;20185;-68
2023/04/02 01:31:29;;;;;;;4.32;3.95;;;;;;;;;;4996268;28;20211;-68
2023/04/02 01:33:56;;;;;;;4.28;3.88;;;;;;;;;;4996005;28;20204;-68
2023/04/02 01:36:28;;;;;;;4.78;4.20;;;;;;;;;;4996081;28;20330;-68
2023/04/02 01:39:01;;;;;;;7.15;4.20;;;;;;;;;;4996082;28;20254;-68
2023/04/02 01:41:33;;;;;;;4.40;3.90;;;;;;;;;;4995921;28;20193;-68
2023/04/02 01:44:03;;;;;;;5.35;4.25;;;;;;;;;;4995906;28;20188;-68
2023/04/02 01:46:31;;;;;;;4.50;4.10;;;;;;;;;;4995932;28;20195;-68
2023/04/02 01:49:00;;;;;;;7.20;4.93;;;;;;;;;;4995342;28;20207;-69
2023/04/02 01:51:29;;;;;;;5.30;4.05;;;;;;;;;;4995385;28;20213;-68
2023/04/02 01:53:57;;;;;;;5.93;4.82;;;;;;;;;;4995673;28;20238;-69
2023/04/02 01:56:24;;;;;;;8.50;3.80;;;;;;;;;;4995206;28;20673;-68
2023/04/02 01:58:51;;;;;;;5.05;4.43;;;;;;;;;;4995752;28;20194;-68
2023/04/02 02:01:21;;;;;;;5.13;4.35;;;;;;;;;;4995214;28;20195;-68
2023/04/02 02:03:50;;;;;;;6.53;4.82;;;;;;;;;;4997641;28;20205;-69
2023/04/02 02:06:18;;;;;;;6.25;3.90;;;;;;;;;;4995840;28;20586;-69
2023/04/02 02:08:47;;;;;;;8.98;5.80;;;;;;;;;;4997122;28;20215;-67
2023/04/02 02:11:16;;;;;;;4.53;4.22;;;;;;;;;;4995821;28;20201;-69
2023/04/02 02:13:46;;;;;;;8.82;5.00;;;;;;;;;;4995487;28;20200;-67
2023/04/02 02:16:17;;;;;;;6.03;5.45;;;;;;;;;;4994875;28;20234;-67
2023/04/02 02:18:46;;;;;;;8.80;4.10;;;;;;;;;;4994752;28;20188;-69
2023/04/02 02:21:19;;;;;;;5.00;4.60;;;;;;;;;;4995035;28;20199;-69
2023/04/02 02:23:46;;;;;;;5.60;3.95;;;;;;;;;;4994656;28;20573;-69
2023/04/02 02:26:14;;;;;;;7.68;5.20;;;;;;;;;;4994913;28;20205;-69
2023/04/02 02:28:44;;;;;;;6.88;5.05;;;;;;;;;;4995089;28;20557;-69
2023/04/02 02:31:16;;;;;;;5.63;5.13;;;;;;;;;;4994695;28;20279;-69
2023/04/02 02:33:44;;;;;;;7.50;5.57;;;;;;;;;;4995105;28;20529;-69
2023/04/02 02:36:16;;;;;;;8.23;7.43;;;;;;;;;;4994936;28;20307;-70
2023/04/02 02:38:52;;;;;;;10.38;6.25;;;;;;;;;;4994975;28;20219;-69
2023/04/02 02:41:21;;;;;;;7.97;6.20;;;;;;;;;;4994741;28;20218;-69
2023/04/02 02:43:52;;;;;;;7.95;6.20;;;;;;;;;;4994668;28;20193;-69
2023/04/02 02:46:21;;;;;;;7.43;6.68;;;;;;;;;;4994762;28;20198;-69
2023/04/02 02:48:48;;;;;;;6.43;5.75;;;;;;;;;;4994246;28;20194;-69
2023/04/02 02:51:21;;;;;;;14.27;6.75;;;;;;;;;;4994348;28;20207;-70
2023/04/02 02:53:50;;;;;;;8.30;6.80;;;;;;;;;;4994824;28;20187;-69
2023/04/02 02:56:17;;;;;;;11.38;7.35;;;;;;;;;;4994559;28;20197;-69
2023/04/02 02:58:45;;;;;;;7.43;6.65;;;;;;;;;;4994412;28;20681;-69
2023/04/02 03:01:12;;;;;;;8.50;6.32;;;;;;;;;;4994655;28;20539;-69
2023/04/02 03:03:39;;;;;;;7.47;6.80;;;;;;;;;;4996441;28;20207;-69
2023/04/02 03:06:08;;;;;;;11.00;6.55;;;;;;;;;;4994500;28;20218;-69
2023/04/02 03:08:39;;;;;;;9.68;6.88;;;;;;;;;;4994361;28;20209;-69
2023/04/02 03:11:09;;;;;;;14.35;6.53;;;;;;;;;;5013855;28;20290;-69
2023/04/02 03:13:38;;;;;;;8.95;6.95;;;;;;;;;;5013571;28;20187;-69
2023/04/02 03:16:10;;;;;;;10.25;6.15;;;;;;;;;;5013609;28;20199;-69
2023/04/02 03:18:41;;;;;;;8.10;6.00;;;;;;;;;;5014422;28;20222;-69
2023/04/02 03:21:14;;;;;;;12.45;6.10;;;;;;;;;;5014402;28;20198;-69
2023/04/02 03:23:44;;;;;;;9.50;6.95;;;;;;;;;;5013751;28;20194;-69
2023/04/02 03:26:15;;;;;;;7.55;6.88;;;;;;;;;;5014168;28;20558;-69
2023/04/02 03:28:44;;;;;;;8.50;5.63;;;;;;;;;;5013791;28;20199;-68
2023/04/02 03:31:15;;;;;;;12.23;6.60;;;;;;;;;;5014231;28;20202;-67
2023/04/02 03:33:44;;;;;;;6.40;5.50;;;;;;;;;;5015665;28;20186;-68
2023/04/02 03:36:18;;;;;;;7.40;5.25;;;;;;;;;;5018894;28;20223;-68
2023/04/02 03:38:50;;;;;;;10.75;6.70;;;;;;;;;;5018906;28;20214;-68
2023/04/02 03:41:19;;;;;;;7.25;5.88;;;;;;;;;;5019163;28;20226;-68
2023/04/02 03:43:48;;;;;;;9.18;6.40;;;;;;;;;;5019453;28;20202;-68
2023/04/02 03:46:24;;;;;;;8.15;5.32;;;;;;;;;;5019519;28;20193;-68
2023/04/02 03:48:52;;;;;;;6.28;5.65;;;;;;;;;;5019548;28;20201;-68
2023/04/02 03:51:21;;;;;;;11.32;6.30;;;;;;;;;;5019228;28;20196;-68
2023/04/02 03:53:49;;;;;;;10.10;5.35;;;;;;;;;;5019401;28;20558;-69
2023/04/02 03:56:27;;;;;;;6.55;5.10;;;;;;;;;;5019238;28;20204;-68
2023/04/02 03:58:56;;;;;;;6.30;5.18;;;;;;;;;;5019451;28;20213;-68
2023/04/02 04:01:26;;;;;;;8.75;5.50;;;;;;;;;;5019470;28;20194;-68
2023/04/02 04:03:54;;;;;;;7.38;5.80;;;;;;;;;;5019186;28;20199;-68
2023/04/02 04:06:26;;;;;;;8.57;4.70;;;;;;;;;;5018974;28;20198;-69
2023/04/02 04:08:57;;;;;;;5.35;4.07;;;;;;;;;;5019355;28;20261;-67
2023/04/02 04:11:27;;;;;;;8.90;4.88;;;;;;;;;;5019005;28;20251;-67
2023/04/02 04:13:56;;;;;;;10.05;5.30;;;;;;;;;;5019910;28;20298;-68
2023/04/02 04:16:27;;;;;;;5.20;4.63;;;;;;;;;;5019442;28;20226;-68
2023/04/02 04:19:01;;;;;;;8.32;5.25;;;;;;;;;;5019720;28;20209;-68
2023/04/02 04:21:36;;;;;;;7.57;5.10;;;;;;;;;;5019601;28;20189;-67
2023/04/02 04:24:06;;;;;;;6.45;4.10;;;;;;;;;;5019538;28;20241;-67
2023/04/02 04:26:38;;;;;;;7.53;4.95;;;;;;;;;;5019586;28;20202;-68
2023/04/02 04:29:08;;;;;;;7.07;5.22;;;;;;;;;;5019503;28;20195;-68
2023/04/02 04:31:38;;;;;;;5.35;4.68;;;;;;;;;;5019202;28;20232;-68
2023/04/02 04:34:08;;;;;;;8.50;4.03;;;;;;;;;;5019407;28;20218;-69
2023/04/02 04:36:40;;;;;;;6.32;4.43;;;;;;;;;;5019272;28;20194;-68
2023/04/02 04:39:13;;;;;;;6.88;4.57;;;;;;;;;;5019548;28;20258;-68
2023/04/02 04:41:42;;;;;;;12.23;5.05;;;;;;;;;;5019368;28;20297;-68
2023/04/02 04:44:16;;;;;;;6.05;4.05;;;;;;;;;;5019267;28;20199;-68
2023/04/02 04:46:45;;;;;;;7.55;4.50;;;;;;;;;;5016338;28;20211;-69
2023/04/02 04:49:15;;;;;;;4.95;4.15;;;;;;;;;;5015588;28;20629;-68
2023/04/02 04:51:46;;;;;;;6.38;4.13;;;;;;;;;;5015681;28;20199;-68
2023/04/02 04:54:15;;;;;;;6.30;4.30;;;;;;;;;;5016243;28;20245;-68
2023/04/02 04:56:45;;;;;;;5.57;4.80;;;;;;;;;;5016291;28;20580;-68
2023/04/02 04:59:16;;;;;;;4.65;3.55;;;;;;;;;;5016217;28;20236;-68
2023/04/02 05:01:46;;;;;;;4.85;3.95;;;;;;;;;;5016068;28;20223;-67
2023/04/02 05:04:17;;;;;;;4.35;3.95;;;;;;;;;;5015650;28;20197;-68
2023/04/02 05:06:46;;;;;;;9.15;4.53;;;;;;;;;;5016252;28;20546;-69
2023/04/02 05:09:18;;;;;;;6.88;4.65;;;;;;;;;;5015685;28;20198;-69
2023/04/02 05:11:46;;;;;;;6.63;3.55;;;;;;;;;;5015539;28;20195;-68
2023/04/02 05:14:19;;;;;;;11.10;4.38;;;;;;;;;;5015996;28;20290;-68
2023/04/02 05:16:49;;;;;;;3.63;3.30;;;;;;;;;;5015961;28;20203;-68
2023/04/02 05:19:19;;;;;;;7.75;3.95;;;;;;;;;;5015720;28;20220;-67
2023/04/02 05:21:49;;;;;;;4.82;3.42;;;;;;;;;;5015521;28;20206;-67
2023/04/02 05:24:34;;;;;;;8.20;3.40;;;;;;;;;;5015053;28;20210;-67
2023/04/02 05:27:03;;;;;;;5.93;3.67;;;;;;;;;;5015634;28;20191;-68
2023/04/02 05:29:32;;;;;;;6.47;3.17;;;;;;;;;;5015123;28;20224;-68
2023/04/02 05:32:01;;;;;;;5.40;4.60;;;;;;;;;;5014910;28;20199;-67
2023/04/02 05:34:30;;;;;;;5.03;4.10;;;;;;;;;;5014798;28;20705;-67
2023/04/02 05:36:57;;;;;;;5.55;3.22;;;;;;;;;;5015129;28;20198;-67
2023/04/02 05:39:26;;;;;;;7.60;2.72;;;;;;;;;;5016035;28;20224;-67
2023/04/02 05:41:58;;;;;;;6.85;3.53;;;;;;;;;;5014956;28;20200;-67
2023/04/02 05:44:27;;;;;;;5.43;3.15;;;;;;;;;;5015183;28;20191;-67
2023/04/02 05:46:56;;;;;;;7.85;3.40;;;;;;;;;;5015317;28;20225;-67
2023/04/02 05:49:26;;;;;;;5.30;3.08;;;;;;;;;;5014637;28;20214;-68
2023/04/02 05:51:56;;;;;;;5.97;2.85;;;;;;;;;;5014777;28;20275;-68
2023/04/02 05:54:26;;;;;;;6.18;3.08;;;;;;;;;;5015306;28;20199;-68
2023/04/02 05:56:56;;;;;;;3.90;3.45;;;;;;;;;;5014397;28;20204;-68
2023/04/02 05:59:26;;;;;;;6.15;3.47;;;;;;;;;;5015638;28;20211;-68
2023/04/02 06:01:57;;;;;;;3.95;3.50;;;;;;;;;;5014813;28;20195;-68
2023/04/02 06:04:27;;;;;;;4.05;2.80;;;;;;;;;;5014569;28;20199;-68
2023/04/02 06:06:59;;;;;;;5.88;2.92;;;;;;;;;;5014663;28;20199;-68
2023/04/02 06:09:31;;;;;;;4.53;3.20;;;;;;;;;;5014342;28;20202;-68
2023/04/02 06:12:02;;;;;;;7.07;4.13;;;;;;;;;;5014451;28;20552;-67
2023/04/02 06:14:31;;;;;;;5.43;2.83;;;;;;;;;;5014951;28;20604;-68
2023/04/02 06:16:58;;;;;;;3.90;3.35;;;;;;;;;;5014691;28;20201;-67
2023/04/02 06:19:28;;;;;;;4.60;3.30;;;;;;;;;;5014821;28;20224;-71
2023/04/02 06:21:59;;;;;;;16.70;4.00;;;;;;;;;;5014903;28;20270;-68
2023/04/02 06:24:27;;;;;;;4.30;3.20;;;;;;;;;;5014171;28;20199;-69
2023/04/02 06:26:56;;;;;;;4.75;3.45;;;;;;;;;;5014294;28;20202;-68
2023/04/02 06:29:27;;;;;;;3.30;2.65;;;;;;;;;;5014167;28;20211;-68
2023/04/02 06:31:56;;;;;;;9.43;3.20;;;;;;;;;;5014198;28;20191;-68
2023/04/02 06:34:25;;;;;;;5.18;3.25;;;;;;;;;;5014132;28;20241;-68
2023/04/02 06:36:55;;;;;;;5.00;2.78;;;;;;;;;;5014048;28;20198;-68
2023/04/02 06:39:23;;;;;;;8.00;3.20;;;;;;;;;;5014902;28;20689;-68
2023/04/02 06:41:55;;;;;;;7.10;3.65;;;;;;;;;;5013864;28;20209;-68
2023/04/02 06:44:25;;;;;;;5.43;3.50;;;;;;;;;;5014258;28;20278;-68
2023/04/02 06:46:53;;;;;;;3.40;2.50;;;;;;;;;;5014515;28;20192;-68
2023/04/02 06:49:24;;;;;;;5.20;2.80;;;;;;;;;;5013840;28;20203;-69
2023/04/02 06:51:53;;;;;;;3.70;2.90;;;;;;;;;;5013723;28;20279;-68
2023/04/02 06:54:21;;;;;;;5.03;3.10;;;;;;;;;;5013905;28;20199;-68
2023/04/02 06:56:49;;;;;;;4.22;2.80;;;;;;;;;;5014728;28;20287;-68
2023/04/02 06:59:17;;;;;;;3.40;2.92;;;;;;;;;;5013699;28;20255;-68
2023/04/02 07:01:46;;;;;;;4.65;2.70;;;;;;;;;;5013524;28;20203;-69
2023/04/02 07:04:14;;;;;;;6.32;3.08;;;;;;;;;;5013313;28;20205;-69
2023/04/02 07:06:43;;;;;;;5.60;2.85;;;;;;;;;;5014245;28;20206;-69
2023/04/02 07:09:10;;;;;;;4.38;2.75;;;;;;;;;;5012889;28;20250;-69
2023/04/02 07:11:37;;;;;;;4.32;2.28;;;;;;;;;;5013290;28;20257;-69
2023/04/02 07:14:04;;;;;;;2.75;2.38;;;;;;;;;;5013521;28;20235;-68
2023/04/02 07:16:33;;;;;;;5.15;2.95;;;;;;;;;;5013835;28;20218;-68
2023/04/02 07:19:02;;;;;;;4.65;2.70;;;;;;;;;;5013495;28;20226;-68
2023/04/02 07:21:29;;;;;;;2.60;2.35;;;;;;;;;;5013402;28;20240;-69
2023/04/02 07:23:58;;;;;;;3.60;2.40;;;;;;;;;;5013405;28;20213;-68
2023/04/02 07:26:27;;;;;;;4.20;2.80;;;;;;;;;;5013752;28;20210;-69
2023/04/02 07:28:54;;;;;;;3.28;2.78;;;;;;;;;;5013359;28;20200;-68
2023/04/02 07:31:23;;;;;;;3.40;3.10;;;;;;;;;;5013154;28;20253;-69
2023/04/02 07:33:50;;;;;;;5.63;2.55;;;;;;;;;;5013449;28;20203;-68
2023/04/02 07:36:18;;;;;;;3.05;2.75;;;;;;;;;;5013247;28;20228;-69
2023/04/02 07:38:45;;;;;;;5.07;2.55;;;;;;;;;;5013445;28;20223;-68
2023/04/02 07:41:14;;;;;;;5.95;3.30;;;;;;;;;;5013542;28;20538;-69
2023/04/02 07:43:42;;;;;;;6.47;2.42;;;;;;;;;;5012926;28;20212;-68
2023/04/02 07:46:10;;;;;;;8.85;2.80;;;;;;;;;;5013741;28;20253;-68
2023/04/02 07:48:39;;;;;;;5.80;3.05;;;;;;;;;;5012818;28;20681;-68
2023/04/02 07:51:06;;;;;;;2.72;2.53;;;;;;;;;;5012605;28;20649;-68
2023/04/02 07:53:34;;;;;;;6.03;2.92;;;;;;;;;;5012937;28;20247;-68
2023/04/02 07:56:03;;;;;;;5.10;2.55;;;;;;;;;;5013170;28;20207;-69
2023/04/02 07:58:32;;;;;;;1.88;1.77;;;;;;;;;;5013003;28;20229;-68
2023/04/02 08:00:59;;;;;;;2.83;2.20;;;;;;;;;;5013188;28;20664;-67
2023/04/02 08:03:26;;;;;;;7.93;2.65;;;;;;;;;;5012989;28;20331;-68
2023/04/02 08:05:54;;;;;;;6.50;2.70;;;;;;;;;;4998177;28;20209;-68
2023/04/02 08:08:22;;;;;;;3.85;2.55;;;;;;;;;;4993130;28;20200;-68
2023/04/02 08:10:49;;;;;;;2.47;2.28;;;;;;;;;;4993406;28;20207;-72
2023/04/02 08:13:16;;;;;;;5.70;2.50;;;;;;;;;;4993265;28;20199;-68
2023/04/02 08:15:45;;;;;;;4.50;2.38;;;;;;;;;;4993688;28;20207;-69
2023/04/02 08:18:12;;;;;;;5.07;2.50;;;;;;;;;;4993198;28;20670;-68
2023/04/02 08:20:39;;;;;;;7.75;2.90;;;;;;;;;;4995902;28;20296;-68
2023/04/02 08:23:14;;;;;;;3.47;2.90;;;;;;;;;;4996990;28;20629;-69
2023/04/02 08:25:41;;;;;;;3.95;2.63;;;;;;;;;;4997248;28;20267;-68
2023/04/02 08:28:08;;;;;;;3.33;2.80;;;;;;;;;;4996958;28;20197;-68
2023/04/02 08:30:36;;;;;;;2.88;2.63;;;;;;;;;;4996697;28;20205;-68
2023/04/02 08:33:05;;;;;;;5.38;3.22;;;;;;;;;;4996730;28;20295;-68
2023/04/02 08:35:32;;;;;;;4.38;2.85;;;;;;;;;;4996851;28;20231;-68
2023/04/02 08:38:00;;;;;;;3.25;2.40;;;;;;;;;;4996908;28;20239;-68
2023/04/02 08:40:30;;;;;;;5.95;2.90;;;;;;;;;;4996597;28;20216;-68
2023/04/02 08:43:13;;;;;;;5.97;2.53;;;;;;;;;;4996838;28;20365;-68
2023/04/02 08:45:47;;;;;;;3.40;3.08;;;;;;;;;;4996638;28;20195;-68
2023/04/02 08:48:16;;;;;;;7.55;2.80;;;;;;;;;;4997463;28;20189;-68
2023/04/02 08:50:44;;;;;;;3.88;2.78;;;;;;;;;;4997029;28;20201;-68
2023/04/02 08:53:14;;;;;;;4.35;2.35;;;;;;;;;;4997068;28;20196;-68
2023/04/02 08:55:42;;;;;;;4.00;2.30;;;;;;;;;;4996735;28;20206;-68
2023/04/02 08:58:14;;;;;;;3.75;2.10;;;;;;;;;;4996315;28;20203;-69
2023/04/02 09:00:42;;;;;;;2.35;2.00;;;;;;;;;;4997093;28;20222;-68
2023/04/02 09:03:10;;;;;;;5.00;2.90;;;;;;;;;;4996258;28;20207;-69
2023/04/02 09:05:40;;;;;;;4.35;2.15;;;;;;;;;;4996144;28;20267;-71
2023/04/02 09:08:16;;;;;;;5.20;2.58;;;;;;;;;;4996673;28;20206;-71
2023/04/02 09:10:47;;;;;;;6.10;2.83;;;;;;;;;;4996167;28;20199;-70
2023/04/02 09:13:17;;;;;;;6.18;2.97;;;;;;;;;;4997293;28;20193;-68
2023/04/02 09:15:44;;;;;;;2.60;1.90;;;;;;;;;;5006681;28;20200;-71
2023/04/02 09:18:14;;;;;;;2.70;1.90;;;;;;;;;;5015305;28;20195;-69
2023/04/02 09:20:42;;;;;;;4.38;1.98;;;;;;;;;;5015519;28;20315;-68
2023/04/02 09:23:15;;;;;;;5.10;2.75;;;;;;;;;;5016029;28;20200;-69
2023/04/02 09:25:45;;;;;;;3.20;2.40;;;;;;;;;;5015658;28;20184;-69
2023/04/02 09:28:12;;;;;;;4.78;2.40;;;;;;;;;;5015621;28;20207;-69
2023/04/02 09:30:43;;;;;;;3.17;2.40;;;;;;;;;;5015225;28;20208;-69
2023/04/02 09:33:11;;;;;;;3.55;2.35;;;;;;;;;;5014799;28;20195;-68
2023/04/02 09:35:53;;;;;;;2.83;2.45;;;;;;;;;;5015092;28;20261;-70
2023/04/02 09:38:23;;;;;;;5.82;2.35;;;;;;;;;;5015095;28;20267;-68
2023/04/02 09:40:52;;;;;;;4.15;2.05;;;;;;;;;;5015177;28;20313;-69
2023/04/02 09:43:20;;;;;;;7.90;2.33;;;;;;;;;;5015187;28;20204;-68
2023/04/02 09:45:56;;;;;;;3.30;1.90;;;;;;;;;;5015198;28;20207;-68
2023/04/02 09:48:25;;;;;;;4.20;2.45;;;;;;;;;;5015128;28;20191;-69
2023/04/02 09:51:03;;;;;;;3.38;1.98;;;;;;;;;;5014897;28;20650;-68
2023/04/02 09:53:34;;;;;;;2.15;1.95;;;;;;;;;;5016052;28;20193;-69
2023/04/02 09:56:09;;;;;;;4.93;2.60;;;;;;;;;;5014831;28;20191;-68
2023/04/02 09:58:36;;;;;;;2.83;2.50;;;;;;;;;;5014741;28;20294;-69
2023/04/02 10:01:03;;;;;;;3.15;2.85;;;;;;;;;;5014916;28;20222;-68
2023/04/02 10:03:37;;;;;;;2.35;2.15;;;;;;;;;;5014751;28;20287;-68
2023/04/02 10:06:05;;;;;;;2.20;2.00;;;;;;;;;;5014679;28;20639;-68
2023/04/02 10:08:34;;;;;;;6.88;2.75;;;;;;;;;;5014989;28;20200;-68
2023/04/02 10:11:03;;;;;;;4.97;2.45;;;;;;;;;;5014616;28;20262;-69
2023/04/02 10:13:32;;;;;;;3.97;2.75;;;;;;;;;;5014909;28;20214;-68
2023/04/02 10:16:01;;;;;;;3.97;2.70;;;;;;;;;;5014263;28;20207;-69
2023/04/02 10:18:34;;;;;;;3.60;2.30;;;;;;;;;;5013988;28;20204;-69
2023/04/02 10:21:03;;;;;;;6.22;2.45;;;;;;;;;;5014235;28;20216;-68
2023/04/02 10:23:31;;;;;;;5.20;2.25;;;;;;;;;;5014742;28;20192;-68
2023/04/02 10:26:02;;;;;;;3.40;1.98;;;;;;;;;;5014851;28;20561;-68
2023/04/02 10:28:37;;;;;;;4.53;2.40;;;;;;;;;;5014426;28;20184;-68
2023/04/02 10:31:06;;;;;;;3.15;2.47;;;;;;;;;;5014371;28;20664;-69
2023/04/02 10:33:35;;;;;;;2.50;2.03;;;;;;;;;;5014433;28;20202;-69
2023/04/02 10:36:05;;;;;;;4.28;2.85;;;;;;;;;;5014173;28;20318;-69
2023/04/02 10:38:37;;;;;;;2.30;2.08;;;;;;;;;;5013670;28;20250;-69
2023/04/02 10:41:10;;;;;;;2.58;2.05;;;;;;;;;;5014447;28;20747;-68
2023/04/02 10:43:46;;;;;;;5.32;2.22;;;;;;;;;;5014002;28;20187;-69
2023/04/02 10:46:18;;;;;;;4.95;3.47;;;;;;;;;;5013900;28;20230;-69
2023/04/02 10:48:50;;;;;;;3.13;2.22;;;;;;;;;;5014611;28;20192;-68
2023/04/02 10:51:25;;;;;;;2.22;2.10;;;;;;;;;;5013474;28;20208;-68
2023/04/02 10:53:56;;;;;;;2.95;2.30;;;;;;;;;;5013582;28;20656;-68
2023/04/02 10:56:25;;;;;;;2.83;2.33;;;;;;;;;;5013326;28;20630;-70
2023/04/02 10:58:54;;;;;;;3.00;2.10;;;;;;;;;;5013496;28;20671;-70
2023/04/02 11:01:24;;;;;;;4.38;2.25;;;;;;;;;;5013014;28;20310;-67
2023/04/02 11:03:54;;;;;;;2.72;2.38;;;;;;;;;;5013637;28;20192;-68
2023/04/02 11:06:23;;;;;;;3.25;2.28;;;;;;;;;;5013882;28;20258;-68
2023/04/02 11:08:51;;;;;;;3.80;2.40;;;;;;;;;;5013830;28;20214;-68
2023/04/02 11:11:20;;;;;;;6.45;2.63;;;;;;;;;;5013928;28;20627;-67
2023/04/02 11:13:52;;;;;;;4.72;2.85;;;;;;;;;;5013530;28;20205;-69
2023/04/02 11:16:20;;;;;;;6.28;2.65;;;;;;;;;;5013342;28;20282;-68
2023/04/02 11:19:02;;;;;;;3.03;2.33;;;;;;;;;;5013193;28;20307;-68
2023/04/02 11:21:39;;;;;;;3.40;2.67;;;;;;;;;;5013010;28;20220;-68
2023/04/02 11:24:07;;;;;;;3.58;2.40;;;;;;;;;;5013830;28;20249;-69
2023/04/02 11:26:40;;;;;;;2.33;2.22;;;;;;;;;;5013966;28;20225;-69
2023/04/02 11:29:15;;;;;;;6.70;2.20;;;;;;;;;;5013566;28;20522;-69
2023/04/02 11:31:43;;;;;;;4.22;2.92;;;;;;;;;;5013277;28;20194;-69
2023/04/02 11:34:15;;;;;;;2.03;1.93;;;;;;;;;;5013013;28;20214;-69
2023/04/02 11:37:02;;;;;;;6.45;2.80;;;;;;;;;;5013211;28;20447;-69
2023/04/02 11:39:44;;;;;;;2.70;2.28;;;;;;;;;;5012624;28;20283;-69
2023/04/02 11:42:28;;;;;;;2.65;2.45;;;;;;;;;;5011331;28;20207;-69
2023/04/02 11:44:59;;;;;;;2.83;2.38;;;;;;;;;;5013239;28;20283;-68
2023/04/02 11:47:27;;;;;;;6.88;2.30;;;;;;;;;;5013255;28;20191;-69
2023/04/02 11:50:00;;;;;;;6.93;2.55;;;;;;;;;;5013457;28;20558;-68
2023/04/02 11:52:28;;;;;;;2.33;2.15;;;;;;;;;;5013778;28;20252;-69
2023/04/02 11:55:03;;;;;;;2.40;2.20;;;;;;;;;;5014111;28;20231;-69
2023/04/02 11:57:42;;;;;;;2.75;2.55;;;;;;;;;;5016938;28;20179;-69
2023/04/02 12:00:21;;;;;;;6.10;2.20;;;;;;;;;;5016800;28;20574;-69
2023/04/02 12:02:54;;;;;;;2.75;2.33;;;;;;;;;;5017193;28;20198;-69
2023/04/02 12:05:25;;;;;;;3.30;2.05;;;;;;;;;;5017003;28;20193;-68
2023/04/02 12:08:09;;;;;;;3.47;2.13;;;;;;;;;;5017290;28;20184;-69
2023/04/02 12:10:51;;;;;;;5.00;2.55;;;;;;;;;;5016753;28;20206;-68
2023/04/02 12:13:19;;;;;;;4.10;2.60;;;;;;;;;;5017013;28;20180;-69
2023/04/02 12:15:49;;;;;;;3.80;2.50;;;;;;;;;;5017234;28;20682;-70
2023/04/02 12:18:18;;;;;;;5.28;2.20;;;;;;;;;;5016227;28;20822;-69
2023/04/02 12:20:49;;;;;;;3.10;2.80;;;;;;;;;;5016312;28;20227;-69
2023/04/02 12:23:19;;;;;;;7.03;6.07;;;;;;;;;;5016885;28;20204;-69
2023/04/02 12:25:47;;;;;;;5.15;2.60;;;;;;;;;;5016883;28;20246;-68
2023/04/02 12:28:19;;;;;;;3.00;2.15;;;;;;;;;;5016883;28;20192;-68
2023/04/02 12:30:48;;;;;;;3.03;2.42;;;;;;;;;;5016526;28;20231;-68
2023/04/02 12:33:16;;;;;;;2.90;2.67;;;;;;;;;;5016754;28;20235;-69
2023/04/02 12:35:45;;;;;;;2.40;2.20;;;;;;;;;;5016753;28;20235;-69
2023/04/02 12:38:22;;;;;;;7.38;2.53;;;;;;;;;;5015857;28;20203;-69
2023/04/02 12:40:53;;;;;;;4.05;3.03;;;;;;;;;;5015852;28;20216;-69
2023/04/02 12:43:24;;;;;;;2.95;2.25;;;;;;;;;;5016601;28;20327;-69
2023/04/02 12:45:53;;;;;;;2.65;2.45;;;;;;;;;;5016414;28;20207;-69
2023/04/02 12:48:21;;;;;;;6.07;3.50;;;;;;;;;;5016511;28;20305;-69
2023/04/02 12:50:48;;;;;;;3.00;2.47;;;;;;;;;;5016074;28;20207;-69
2023/04/02 12:53:20;;;;;;;2.35;2.15;;;;;;;;;;5016232;28;20446;-68
2023/04/02 12:55:48;;;;;;;3.70;3.13;;;;;;;;;;5016580;28;20189;-69
2023/04/02 12:58:26;;;;;;;3.10;2.38;;;;;;;;;;5015099;28;20196;-69
2023/04/02 13:01:09;;;;;;;2.13;1.92;;;;;;;;;;5015452;28;20217;-69
2023/04/02 13:03:36;;;;;;;3.65;1.90;;;;;;;;;;5015985;28;20192;-69
2023/04/02 13:06:03;;;;;;;2.47;2.20;;;;;;;;;;5015030;28;20197;-69
2023/04/02 13:08:32;;;;;;;2.08;1.88;;;;;;;;;;5015720;28;20665;-68
2023/04/02 13:11:00;;;;;;;3.45;2.00;;;;;;;;;;5016017;28;20291;-68
2023/04/02 13:13:29;;;;;;;3.60;2.20;;;;;;;;;;5015713;28;20654;-68
2023/04/02 13:16:23;;;;;;;2.83;2.20;;;;;;;;;;5016014;28;20227;-68
2023/04/02 13:18:50;;;;;;;3.50;2.10;;;;;;;;;;5015239;28;20438;-69
2023/04/02 13:21:27;;;;;;;4.00;2.50;;;;;;;;;;5015133;28;20739;-68
2023/04/02 13:23:54;;;;;;;4.97;2.13;;;;;;;;;;5015627;28;20438;-68
2023/04/02 13:26:23;;;;;;;2.47;1.75;;;;;;;;;;5015271;28;20192;-69
2023/04/02 13:28:57;;;;;;;3.13;1.90;;;;;;;;;;5015499;28;20566;-70
2023/04/02 13:31:26;;;;;;;1.97;1.80;;;;;;;;;;5016317;28;20206;-68
2023/04/02 13:33:53;;;;;;;2.30;2.10;;;;;;;;;;5015441;28;20443;-69
2023/04/02 13:36:20;;;;;;;3.13;2.60;;;;;;;;;;5015095;28;20234;-70
2023/04/02 13:38:47;;;;;;;1.92;1.83;;;;;;;;;;5015044;28;20278;-70
2023/04/02 13:41:20;;;;;;;3.40;2.58;;;;;;;;;;5014988;28;20667;-69
2023/04/02 13:43:47;;;;;;;2.88;2.28;;;;;;;;;;5014992;28;20516;-69
2023/04/02 13:46:17;;;;;;;2.13;1.92;;;;;;;;;;5015284;28;20207;-69
2023/04/02 13:48:46;;;;;;;3.55;1.95;;;;;;;;;;5015448;28;20192;-69
2023/04/02 13:51:15;;;;;;;3.35;2.88;;;;;;;;;;5014682;28;20203;-69
2023/04/02 13:53:42;;;;;;;7.43;3.13;;;;;;;;;;5015161;28;20204;-69
2023/04/02 13:56:09;;;;;;;10.55;2.40;;;;;;;;;;5014918;28;20212;-69
2023/04/02 13:58:37;;;;;;;1.90;1.57;;;;;;;;;;5014348;28;20196;-69
2023/04/02 14:01:04;;;;;;;2.95;1.90;;;;;;;;;;5014538;28;20487;-69
2023/04/02 14:03:31;;;;;;;2.50;2.00;;;;;;;;;;5015032;28;20644;-69
2023/04/02 14:06:03;;;;;;;5.83;2.00;;;;;;;;;;5015375;28;20806;-68
2023/04/02 14:08:34;;;;;;;4.18;2.20;;;;;;;;;;5015081;28;20522;-69
2023/04/02 14:11:08;;;;;;;2.27;1.80;;;;;;;;;;5014797;28;20278;-68
2023/04/02 14:13:47;;;;;;;2.13;1.83;;;;;;;;;;5014922;28;20519;-68
2023/04/02 14:16:20;;;;;;;2.20;1.90;;;;;;;;;;5014978;28;20830;-69
2023/04/02 14:18:54;;;;;;;10.20;5.50;;;;;;;;;;5013326;28;20613;-69
2023/04/02 14:21:25;;;;;;;3.20;2.33;;;;;;;;;;5014189;28;20561;-69
2023/04/02 14:24:09;;;;;;;2.70;1.80;;;;;;;;;;5014371;28;20435;-68
2023/04/02 14:26:42;;;;;;;2.70;1.92;;;;;;;;;;5014775;28;20442;-69
2023/04/02 14:29:14;;;;;;;2.20;2.00;;;;;;;;;;5014358;28;20202;-69
2023/04/02 14:31:50;;;;;;;3.17;2.05;;;;;;;;;;5014180;28;20943;-69
2023/04/02 14:34:21;;;;;;;3.88;2.10;;;;;;;;;;5014182;28;20222;-69
2023/04/02 14:36:55;;;;;;;2.33;1.90;;;;;;;;;;5014317;28;20181;-69
2023/04/02 14:39:29;;;;;;;2.10;1.73;;;;;;;;;;5013729;28;20463;-70
2023/04/02 14:41:58;;;;;;;3.17;2.20;;;;;;;;;;5014030;28;20477;-68
2023/04/02 14:44:28;;;;;;;2.85;2.03;;;;;;;;;;5014180;28;20531;-70
2023/04/02 14:46:59;;;;;;;2.97;1.60;;;;;;;;;;5014395;28;20546;-69
2023/04/02 14:49:29;;;;;;;6.40;3.30;;;;;;;;;;5013840;28;20943;-70
2023/04/02 14:52:00;;;;;;;2.20;2.00;;;;;;;;;;5014160;28;20447;-68
2023/04/02 14:54:32;;;;;;;5.47;1.97;;;;;;;;;;5014220;28;20432;-68
2023/04/02 14:57:01;;;;;;;2.70;1.87;;;;;;;;;;5013723;28;20458;-70
2023/04/02 14:59:30;;;;;;;1.83;1.70;;;;;;;;;;5013131;28;20446;-70
2023/04/02 15:01:59;;;;;;;3.10;1.80;;;;;;;;;;5013335;28;20659;-69